Tropical Cyclones
[Index]
Main Index Home Page Stock Weather Photos Extreme Storms Discussion Storm News and Storm Chasing Reports Tropical Cyclones / Hurricanes / Typhoons Weather Data and Links Wild Fires / Bushfires Weather Observation Techniques Weather Picture Catalogue Tornado Pictures and Reports Stock Video Footage and DVDs for sale
Season 1970-1971 Tropical Cyclone DORA Track Map
Season 1970-1971 Summaries: [BoM-AU] [JTWC-AU] [JTWC-SIO] [JTWC-SPAC] [JTWC-SH]
<<- Previous TC | JTWC 1970-1971 Season | Next TC ->>

click for intensity scale information  Lat/long Grid: Show Hide

 Date Labels: Show Hide

Joint Typhoon Warning Centre Cyclone Data

Name: DORA
Number: 760 / 7115

10 Feb 1971 12:00 UTC to 17 Feb 1971 06:00 UTC

    date/time    lat    long     hPa   cat  kts
1971-02-10 12   19.6   152.7                  20          
1971-02-10 18   20.1   153.0                  25          
1971-02-11 00   20.6   153.6                  25          
1971-02-11 06   20.8   154.6                  25          
1971-02-11 12   21.2   155.8                  20          
1971-02-11 18   22.0   157.3                  20          
1971-02-12 00   23.0   158.5                  20          
1971-02-12 06   24.0   159.0                  20          
1971-02-12 12   24.8   159.2                  20          
1971-02-12 18   25.3   159.3                  15          
1971-02-13 00   25.7   159.5                  10          
1971-02-13 06   26.2   160.4                  15          
1971-02-13 12   26.8   161.2                  20          
1971-02-13 18   27.2   161.5                  20          
1971-02-14 00   27.5   161.6                  20          
1971-02-14 06   27.6   161.4                  25          
1971-02-14 12   27.6   161.2                  30          
1971-02-14 18   27.5   160.9                  30          
1971-02-15 00   27.4   160.5                  30          
1971-02-15 06   27.2   160.1                  30          
1971-02-15 12   27.1   159.7                  30          
1971-02-15 18   27.2   159.3                  30          
1971-02-16 00   27.4   158.8                  25          
1971-02-16 06   27.6   158.2                  20          
1971-02-16 12   27.8   157.4                  20          
1971-02-16 18   28.0   156.4            1     40          
1971-02-17 00   28.0   155.3            2     55          
1971-02-17 06   27.4   154.0            2     60          
Winds are 1-min average.

Tropical cyclone tracks developed by Michael Bath using data from the Joint Typhoon Warning Centre Best Tracks and Google Maps.


[Australian Severe Weather index] [Copyright Notice] [Email Contacts] [Search This Site] [Privacy Policy]
Document: tropical_cyclone_dora.htm Updated: 18 September 2016